<?xml version="1.0" encoding="UTF-8" standalone="no" ?>
<gpx xmlns="http://www.topografix.com/GPX/1/1" xmlns:xsi="http://www.w3.org/2001/XMLSchema-instance" xsi:schemaLocation="http://www.topografix.com/GPX/1/1 http://www.topografix.com/GPX/1/1/gpx.xsd" version="1.1" creator="VisuGPX - https://www.visugpx.com">
  <metadata>
    <name>Edirne-Zagreb</name>
  </metadata>
  <trk>
    <name><![CDATA[Tour d'Europe: étape 677]]></name>
    <extensions>
      <line xmlns="http://www.topografix.com/GPX/gpx_style/0/2">
        <color>888800</color>
        <width>4</width>
      </line>
    </extensions>
    <trkseg>
      <trkpt lat="41.31417" lon="19.47179">
        <ele>122.422934</ele>
        <time>2022-05-06T07:58:55.233Z</time>
      </trkpt>
      <trkpt lat="41.31487" lon="19.47098">
        <ele>98.449809</ele>
        <time>2022-05-06T08:26:34.541Z</time>
      </trkpt>
      <trkpt lat="41.31547" lon="19.4685">
        <ele>43.370936</ele>
        <time>2022-05-06T08:27:45.575Z</time>
      </trkpt>
      <trkpt lat="41.31667" lon="19.46671">
        <ele>41.697053</ele>
        <time>2022-05-06T08:29:12.548Z</time>
      </trkpt>
      <trkpt lat="41.31719" lon="19.4638">
        <ele>45.967543</ele>
        <time>2022-05-06T08:30:15.582Z</time>
      </trkpt>
      <trkpt lat="41.31746" lon="19.46098">
        <ele>41.87837</ele>
        <time>2022-05-06T08:31:02.550Z</time>
      </trkpt>
      <trkpt lat="41.31737" lon="19.45819">
        <ele>37.110234</ele>
        <time>2022-05-06T08:31:46.541Z</time>
      </trkpt>
      <trkpt lat="41.31716" lon="19.45567">
        <ele>37.142865</ele>
        <time>2022-05-06T08:32:26.545Z</time>
      </trkpt>
      <trkpt lat="41.31615" lon="19.45306">
        <ele>40.364328</ele>
        <time>2022-05-06T08:33:13.550Z</time>
      </trkpt>
      <trkpt lat="41.31415" lon="19.45159">
        <ele>40.366812</ele>
        <time>2022-05-06T08:34:18.556Z</time>
      </trkpt>
      <trkpt lat="41.31199" lon="19.45027">
        <ele>42.407366</ele>
        <time>2022-05-06T08:35:16.542Z</time>
      </trkpt>
      <trkpt lat="41.30995" lon="19.44897">
        <ele>42.626546</ele>
        <time>2022-05-06T08:36:20.530Z</time>
      </trkpt>
      <trkpt lat="41.30921" lon="19.44646">
        <ele>44.008495</ele>
        <time>2022-05-06T08:47:10.537Z</time>
      </trkpt>
      <trkpt lat="41.31022" lon="19.44719">
        <ele>58.175351</ele>
        <time>2022-05-06T08:48:47.531Z</time>
      </trkpt>
      <trkpt lat="41.31221" lon="19.44601">
        <ele>68.501552</ele>
        <time>2022-05-06T08:50:06.532Z</time>
      </trkpt>
      <trkpt lat="41.31423" lon="19.44603">
        <ele>60.63342</ele>
        <time>2022-05-06T08:51:13.541Z</time>
      </trkpt>
      <trkpt lat="41.31618" lon="19.44499">
        <ele>79.654682</ele>
        <time>2022-05-06T08:52:18.533Z</time>
      </trkpt>
      <trkpt lat="41.31844" lon="19.44499">
        <ele>72.754912</ele>
        <time>2022-05-06T08:53:09.563Z</time>
      </trkpt>
      <trkpt lat="41.32056" lon="19.44515">
        <ele>63.047645</ele>
        <time>2022-05-06T08:53:53.535Z</time>
      </trkpt>
      <trkpt lat="41.32275" lon="19.44528">
        <ele>63.403003</ele>
        <time>2022-05-06T08:54:35.543Z</time>
      </trkpt>
      <trkpt lat="41.32495" lon="19.44534">
        <ele>64.727492</ele>
        <time>2022-05-06T08:55:31.544Z</time>
      </trkpt>
      <trkpt lat="41.32712" lon="19.44544">
        <ele>62.014949</ele>
        <time>2022-05-06T08:56:16.577Z</time>
      </trkpt>
      <trkpt lat="41.32933" lon="19.44548">
        <ele>53.900456</ele>
        <time>2022-05-06T08:56:57.555Z</time>
      </trkpt>
      <trkpt lat="41.33139" lon="19.44549">
        <ele>51.627569</ele>
        <time>2022-05-06T08:57:41.560Z</time>
      </trkpt>
      <trkpt lat="41.33351" lon="19.44549">
        <ele>52.69581</ele>
        <time>2022-05-06T08:58:23.570Z</time>
      </trkpt>
      <trkpt lat="41.33566" lon="19.44532">
        <ele>51.890026</ele>
        <time>2022-05-06T08:59:05.556Z</time>
      </trkpt>
      <trkpt lat="41.33757" lon="19.44454">
        <ele>47.555973</ele>
        <time>2022-05-06T08:59:47.591Z</time>
      </trkpt>
      <trkpt lat="41.33974" lon="19.44368">
        <ele>50.544505</ele>
        <time>2022-05-06T09:00:39.543Z</time>
      </trkpt>
      <trkpt lat="41.341" lon="19.44484">
        <ele>45.032622</ele>
        <time>2022-05-06T09:01:28.547Z</time>
      </trkpt>
      <trkpt lat="41.34162" lon="19.4477">
        <ele>40.697188</ele>
        <time>2022-05-06T09:02:13.539Z</time>
      </trkpt>
      <trkpt lat="41.34263" lon="19.45008">
        <ele>42.996161</ele>
        <time>2022-05-06T09:02:55.539Z</time>
      </trkpt>
      <trkpt lat="41.34363" lon="19.4524">
        <ele>42.171093</ele>
        <time>2022-05-06T09:03:37.569Z</time>
      </trkpt>
      <trkpt lat="41.34463" lon="19.45488">
        <ele>41.495038</ele>
        <time>2022-05-06T09:04:28.542Z</time>
      </trkpt>
      <trkpt lat="41.34566" lon="19.45739">
        <ele>42.191141</ele>
        <time>2022-05-06T09:05:34.573Z</time>
      </trkpt>
      <trkpt lat="41.34677" lon="19.46022">
        <ele>36.904191</ele>
        <time>2022-05-06T09:06:39.552Z</time>
      </trkpt>
      <trkpt lat="41.34797" lon="19.46308">
        <ele>38.084342</ele>
        <time>2022-05-06T09:07:37.543Z</time>
      </trkpt>
      <trkpt lat="41.34906" lon="19.46566">
        <ele>38.733627</ele>
        <time>2022-05-06T09:08:31.556Z</time>
      </trkpt>
      <trkpt lat="41.35007" lon="19.46817">
        <ele>38.440294</ele>
        <time>2022-05-06T09:09:18.547Z</time>
      </trkpt>
      <trkpt lat="41.35099" lon="19.47057">
        <ele>38.046252</ele>
        <time>2022-05-06T09:10:19.568Z</time>
      </trkpt>
      <trkpt lat="41.35198" lon="19.4729">
        <ele>38.053763</ele>
        <time>2022-05-06T09:11:22.551Z</time>
      </trkpt>
      <trkpt lat="41.35282" lon="19.47551">
        <ele>37.723898</ele>
        <time>2022-05-06T09:12:22.559Z</time>
      </trkpt>
      <trkpt lat="41.35464" lon="19.47708">
        <ele>37.523486</ele>
        <time>2022-05-06T09:13:10.565Z</time>
      </trkpt>
      <trkpt lat="41.35653" lon="19.47876">
        <ele>41.183403</ele>
        <time>2022-05-06T09:14:04.536Z</time>
      </trkpt>
      <trkpt lat="41.35827" lon="19.48056">
        <ele>43.815015</ele>
        <time>2022-05-06T09:14:58.585Z</time>
      </trkpt>
      <trkpt lat="41.35914" lon="19.48349">
        <ele>50.461762</ele>
        <time>2022-05-06T09:15:56.528Z</time>
      </trkpt>
      <trkpt lat="41.35984" lon="19.48597">
        <ele>59.581684</ele>
        <time>2022-05-06T09:17:51.552Z</time>
      </trkpt>
      <trkpt lat="41.36157" lon="19.48803">
        <ele>52.273946</ele>
        <time>2022-05-06T09:18:46.585Z</time>
      </trkpt>
      <trkpt lat="41.36315" lon="19.49004">
        <ele>42.052588</ele>
        <time>2022-05-06T09:19:27.551Z</time>
      </trkpt>
      <trkpt lat="41.36468" lon="19.49193">
        <ele>40.110149</ele>
        <time>2022-05-06T09:20:13.551Z</time>
      </trkpt>
      <trkpt lat="41.36642" lon="19.49399">
        <ele>42.921572</ele>
        <time>2022-05-06T09:21:04.547Z</time>
      </trkpt>
      <trkpt lat="41.36768" lon="19.4962">
        <ele>45.580965</ele>
        <time>2022-05-06T09:21:52.562Z</time>
      </trkpt>
      <trkpt lat="41.36832" lon="19.49905">
        <ele>45.179184</ele>
        <time>2022-05-06T09:22:41.563Z</time>
      </trkpt>
      <trkpt lat="41.36898" lon="19.50171">
        <ele>45.325607</ele>
        <time>2022-05-06T09:23:29.545Z</time>
      </trkpt>
      <trkpt lat="41.36961" lon="19.50456">
        <ele>48.112192</ele>
        <time>2022-05-06T09:24:20.543Z</time>
      </trkpt>
      <trkpt lat="41.37016" lon="19.50769">
        <ele>45.772679</ele>
        <time>2022-05-06T09:25:16.599Z</time>
      </trkpt>
      <trkpt lat="41.37058" lon="19.5107">
        <ele>47.302212</ele>
        <time>2022-05-06T09:26:09.556Z</time>
      </trkpt>
      <trkpt lat="41.37097" lon="19.51359">
        <ele>46.704102</ele>
        <time>2022-05-06T09:26:59.546Z</time>
      </trkpt>
      <trkpt lat="41.37135" lon="19.51638">
        <ele>47.25432</ele>
        <time>2022-05-06T09:27:47.559Z</time>
      </trkpt>
      <trkpt lat="41.37174" lon="19.51917">
        <ele>45.812281</ele>
        <time>2022-05-06T09:28:35.543Z</time>
      </trkpt>
      <trkpt lat="41.37224" lon="19.5225">
        <ele>46.106753</ele>
        <time>2022-05-06T09:29:34.553Z</time>
      </trkpt>
      <trkpt lat="41.37266" lon="19.52567">
        <ele>46.204729</ele>
        <time>2022-05-06T09:30:29.556Z</time>
      </trkpt>
      <trkpt lat="41.37312" lon="19.52897">
        <ele>48.26113</ele>
        <time>2022-05-06T09:31:27.542Z</time>
      </trkpt>
      <trkpt lat="41.37341" lon="19.53178">
        <ele>51.654773</ele>
        <time>2022-05-06T09:32:14.547Z</time>
      </trkpt>
      <trkpt lat="41.37325" lon="19.53462">
        <ele>52.985109</ele>
        <time>2022-05-06T09:33:10.548Z</time>
      </trkpt>
      <trkpt lat="41.37087" lon="19.53524">
        <ele>50.603363</ele>
        <time>2022-05-06T09:34:05.578Z</time>
      </trkpt>
      <trkpt lat="41.36871" lon="19.53577">
        <ele>50.369082</ele>
        <time>2022-05-06T09:34:53.544Z</time>
      </trkpt>
      <trkpt lat="41.36684" lon="19.53666">
        <ele>50.246723</ele>
        <time>2022-05-06T09:35:36.543Z</time>
      </trkpt>
      <trkpt lat="41.36495" lon="19.53818">
        <ele>53.209952</ele>
        <time>2022-05-06T09:36:32.559Z</time>
      </trkpt>
      <trkpt lat="41.36305" lon="19.53966">
        <ele>53.261063</ele>
        <time>2022-05-06T09:37:27.533Z</time>
      </trkpt>
      <trkpt lat="41.3609" lon="19.54111">
        <ele>52.421958</ele>
        <time>2022-05-06T09:38:25.535Z</time>
      </trkpt>
      <trkpt lat="41.35866" lon="19.54245">
        <ele>52.74307</ele>
        <time>2022-05-06T09:39:22.532Z</time>
      </trkpt>
      <trkpt lat="41.35997" lon="19.54175">
        <ele>51.502771</ele>
        <time>2022-05-06T09:40:22.544Z</time>
      </trkpt>
      <trkpt lat="41.36075" lon="19.54439">
        <ele>53.493027</ele>
        <time>2022-05-06T09:41:22.555Z</time>
      </trkpt>
      <trkpt lat="41.36079" lon="19.54749">
        <ele>53.542991</ele>
        <time>2022-05-06T09:42:18.545Z</time>
      </trkpt>
      <trkpt lat="41.36141" lon="19.54921">
        <ele>55.364198</ele>
        <time>2022-05-06T09:43:29.546Z</time>
      </trkpt>
      <trkpt lat="41.36343" lon="19.54989">
        <ele>55.482213</ele>
        <time>2022-05-06T09:44:11.526Z</time>
      </trkpt>
      <trkpt lat="41.36498" lon="19.55165">
        <ele>54.288802</ele>
        <time>2022-05-06T09:44:55.549Z</time>
      </trkpt>
      <trkpt lat="41.36616" lon="19.55404">
        <ele>57.953357</ele>
        <time>2022-05-06T09:45:53.539Z</time>
      </trkpt>
      <trkpt lat="41.36724" lon="19.55657">
        <ele>59.595881</ele>
        <time>2022-05-06T09:46:55.605Z</time>
      </trkpt>
      <trkpt lat="41.36782" lon="19.55928">
        <ele>59.970699</ele>
        <time>2022-05-06T09:47:42.551Z</time>
      </trkpt>
      <trkpt lat="41.36743" lon="19.56258">
        <ele>53.101584</ele>
        <time>2022-05-06T09:48:27.537Z</time>
      </trkpt>
      <trkpt lat="41.36666" lon="19.5651">
        <ele>53.904012</ele>
        <time>2022-05-06T09:49:13.532Z</time>
      </trkpt>
      <trkpt lat="41.36593" lon="19.56746">
        <ele>55.340426</ele>
        <time>2022-05-06T09:49:54.538Z</time>
      </trkpt>
      <trkpt lat="41.36517" lon="19.57003">
        <ele>55.62608</ele>
        <time>2022-05-06T09:50:39.542Z</time>
      </trkpt>
      <trkpt lat="41.3647" lon="19.57266">
        <ele>54.000553</ele>
        <time>2022-05-06T09:51:24.520Z</time>
      </trkpt>
      <trkpt lat="41.36453" lon="19.57551">
        <ele>56.536644</ele>
        <time>2022-05-06T09:52:12.532Z</time>
      </trkpt>
      <trkpt lat="41.36467" lon="19.57814">
        <ele>58.307256</ele>
        <time>2022-05-06T09:52:54.549Z</time>
      </trkpt>
      <trkpt lat="41.36507" lon="19.58074">
        <ele>59.018521</ele>
        <time>2022-05-06T09:53:37.552Z</time>
      </trkpt>
      <trkpt lat="41.36553" lon="19.58331">
        <ele>58.991123</ele>
        <time>2022-05-06T09:54:20.544Z</time>
      </trkpt>
      <trkpt lat="41.36599" lon="19.58579">
        <ele>57.347042</ele>
        <time>2022-05-06T09:55:01.553Z</time>
      </trkpt>
      <trkpt lat="41.36648" lon="19.58858">
        <ele>56.347577</ele>
        <time>2022-05-06T09:55:43.544Z</time>
      </trkpt>
      <trkpt lat="41.36696" lon="19.59112">
        <ele>57.524987</ele>
        <time>2022-05-06T09:56:23.553Z</time>
      </trkpt>
      <trkpt lat="41.36749" lon="19.59364">
        <ele>58.877825</ele>
        <time>2022-05-06T09:57:03.551Z</time>
      </trkpt>
      <trkpt lat="41.36818" lon="19.59609">
        <ele>59.314224</ele>
        <time>2022-05-06T09:57:43.536Z</time>
      </trkpt>
      <trkpt lat="41.36905" lon="19.59893">
        <ele>62.420798</ele>
        <time>2022-05-06T09:58:37.535Z</time>
      </trkpt>
      <trkpt lat="41.36994" lon="19.60191">
        <ele>65.278601</ele>
        <time>2022-05-06T09:59:41.579Z</time>
      </trkpt>
      <trkpt lat="41.3708" lon="19.60472">
        <ele>70.790786</ele>
        <time>2022-05-06T10:00:44.551Z</time>
      </trkpt>
      <trkpt lat="41.37116" lon="19.60759">
        <ele>70.677218</ele>
        <time>2022-05-06T10:01:40.546Z</time>
      </trkpt>
      <trkpt lat="41.37173" lon="19.61068">
        <ele>65.811789</ele>
        <time>2022-05-06T10:02:35.547Z</time>
      </trkpt>
      <trkpt lat="41.37223" lon="19.61366">
        <ele>69.451794</ele>
        <time>2022-05-06T10:03:35.592Z</time>
      </trkpt>
      <trkpt lat="41.37353" lon="19.6165">
        <ele>68.384884</ele>
        <time>2022-05-06T10:04:34.553Z</time>
      </trkpt>
      <trkpt lat="41.37479" lon="19.61911">
        <ele>69.43754</ele>
        <time>2022-05-06T10:05:28.539Z</time>
      </trkpt>
      <trkpt lat="41.37592" lon="19.62158">
        <ele>70.671744</ele>
        <time>2022-05-06T10:06:28.583Z</time>
      </trkpt>
      <trkpt lat="41.37676" lon="19.6234">
        <ele>74.20698</ele>
        <time>2022-05-06T10:32:29.548Z</time>
      </trkpt>
      <trkpt lat="41.37834" lon="19.62523">
        <ele>72.684378</ele>
        <time>2022-05-06T10:33:22.549Z</time>
      </trkpt>
      <trkpt lat="41.38019" lon="19.62708">
        <ele>73.809538</ele>
        <time>2022-05-06T10:34:20.551Z</time>
      </trkpt>
      <trkpt lat="41.38194" lon="19.62881">
        <ele>78.645482</ele>
        <time>2022-05-06T10:35:21.550Z</time>
      </trkpt>
      <trkpt lat="41.3836" lon="19.63039">
        <ele>79.811987</ele>
        <time>2022-05-06T10:36:21.552Z</time>
      </trkpt>
      <trkpt lat="41.38547" lon="19.63202">
        <ele>81.358034</ele>
        <time>2022-05-06T10:37:09.536Z</time>
      </trkpt>
      <trkpt lat="41.38725" lon="19.63357">
        <ele>79.494058</ele>
        <time>2022-05-06T10:38:02.530Z</time>
      </trkpt>
      <trkpt lat="41.38931" lon="19.63532">
        <ele>76.82731</ele>
        <time>2022-05-06T10:38:56.542Z</time>
      </trkpt>
      <trkpt lat="41.39117" lon="19.63694">
        <ele>77.140461</ele>
        <time>2022-05-06T10:39:44.537Z</time>
      </trkpt>
      <trkpt lat="41.39285" lon="19.63838">
        <ele>75.549429</ele>
        <time>2022-05-06T10:40:25.590Z</time>
      </trkpt>
      <trkpt lat="41.39489" lon="19.63931">
        <ele>77.381766</ele>
        <time>2022-05-06T10:41:12.547Z</time>
      </trkpt>
      <trkpt lat="41.39678" lon="19.64104">
        <ele>85.227507</ele>
        <time>2022-05-06T10:42:06.545Z</time>
      </trkpt>
      <trkpt lat="41.39844" lon="19.64315">
        <ele>90.620682</ele>
        <time>2022-05-06T10:43:11.554Z</time>
      </trkpt>
      <trkpt lat="41.39968" lon="19.64549">
        <ele>89.182743</ele>
        <time>2022-05-06T10:44:11.592Z</time>
      </trkpt>
      <trkpt lat="41.39917" lon="19.64819">
        <ele>79.113082</ele>
        <time>2022-05-06T10:44:54.542Z</time>
      </trkpt>
      <trkpt lat="41.39824" lon="19.65079">
        <ele>80.212211</ele>
        <time>2022-05-06T10:45:44.647Z</time>
      </trkpt>
      <trkpt lat="41.39679" lon="19.6531">
        <ele>85.16132</ele>
        <time>2022-05-06T10:46:45.556Z</time>
      </trkpt>
      <trkpt lat="41.39559" lon="19.65434">
        <ele>95.26297</ele>
        <time>2022-05-06T10:48:31.551Z</time>
      </trkpt>
      <trkpt lat="41.39402" lon="19.65555">
        <ele>109.615718</ele>
        <time>2022-05-06T10:49:54.547Z</time>
      </trkpt>
      <trkpt lat="41.39323" lon="19.65754">
        <ele>99.063489</ele>
        <time>2022-05-06T10:51:07.534Z</time>
      </trkpt>
      <trkpt lat="41.39159" lon="19.65931">
        <ele>96.136189</ele>
        <time>2022-05-06T10:52:07.536Z</time>
      </trkpt>
      <trkpt lat="41.39046" lon="19.66098">
        <ele>96.172393</ele>
        <time>2022-05-06T10:52:57.565Z</time>
      </trkpt>
      <trkpt lat="41.38938" lon="19.66291">
        <ele>97.328756</ele>
        <time>2022-05-06T10:53:58.546Z</time>
      </trkpt>
      <trkpt lat="41.38761" lon="19.66508">
        <ele>95.966852</ele>
        <time>2022-05-06T10:54:58.538Z</time>
      </trkpt>
      <trkpt lat="41.38581" lon="19.66727">
        <ele>95.940498</ele>
        <time>2022-05-06T10:55:58.574Z</time>
      </trkpt>
      <trkpt lat="41.38403" lon="19.66941">
        <ele>101.394607</ele>
        <time>2022-05-06T10:56:58.552Z</time>
      </trkpt>
      <trkpt lat="41.38246" lon="19.6712">
        <ele>105.526089</ele>
        <time>2022-05-06T10:57:58.541Z</time>
      </trkpt>
      <trkpt lat="41.38058" lon="19.67273">
        <ele>109.389134</ele>
        <time>2022-05-06T10:58:58.534Z</time>
      </trkpt>
      <trkpt lat="41.37851" lon="19.6741">
        <ele>107.539043</ele>
        <time>2022-05-06T10:59:52.549Z</time>
      </trkpt>
      <trkpt lat="41.37661" lon="19.67551">
        <ele>102.929074</ele>
        <time>2022-05-06T11:00:32.539Z</time>
      </trkpt>
      <trkpt lat="41.37483" lon="19.67743">
        <ele>99.076054</ele>
        <time>2022-05-06T11:01:12.541Z</time>
      </trkpt>
      <trkpt lat="41.37322" lon="19.67927">
        <ele>100.788317</ele>
        <time>2022-05-06T11:01:54.588Z</time>
      </trkpt>
      <trkpt lat="41.37195" lon="19.68172">
        <ele>97.787961</ele>
        <time>2022-05-06T11:02:34.546Z</time>
      </trkpt>
      <trkpt lat="41.37078" lon="19.68418">
        <ele>99.670859</ele>
        <time>2022-05-06T11:03:16.550Z</time>
      </trkpt>
      <trkpt lat="41.37108" lon="19.6869">
        <ele>100.126797</ele>
        <time>2022-05-06T11:03:58.542Z</time>
      </trkpt>
      <trkpt lat="41.37121" lon="19.68999">
        <ele>101.916979</ele>
        <time>2022-05-06T11:04:38.537Z</time>
      </trkpt>
      <trkpt lat="41.37072" lon="19.6926">
        <ele>101.648164</ele>
        <time>2022-05-06T11:05:32.539Z</time>
      </trkpt>
      <trkpt lat="41.3702" lon="19.69528">
        <ele>96.343238</ele>
        <time>2022-05-06T11:06:12.546Z</time>
      </trkpt>
      <trkpt lat="41.36967" lon="19.69803">
        <ele>94.857966</ele>
        <time>2022-05-06T11:06:54.546Z</time>
      </trkpt>
      <trkpt lat="41.36917" lon="19.7007">
        <ele>99.866917</ele>
        <time>2022-05-06T11:07:35.551Z</time>
      </trkpt>
      <trkpt lat="41.37057" lon="19.70239">
        <ele>104.362436</ele>
        <time>2022-05-06T11:08:19.536Z</time>
      </trkpt>
      <trkpt lat="41.36874" lon="19.70364">
        <ele>104.276639</ele>
        <time>2022-05-06T11:11:13.570Z</time>
      </trkpt>
      <trkpt lat="41.36669" lon="19.70436">
        <ele>101.896423</ele>
        <time>2022-05-06T11:12:14.568Z</time>
      </trkpt>
      <trkpt lat="41.36545" lon="19.7071">
        <ele>94.976019</ele>
        <time>2022-05-06T11:12:59.546Z</time>
      </trkpt>
      <trkpt lat="41.36436" lon="19.70985">
        <ele>87.558604</ele>
        <time>2022-05-06T11:13:45.539Z</time>
      </trkpt>
      <trkpt lat="41.36355" lon="19.71254">
        <ele>90.131593</ele>
        <time>2022-05-06T11:14:34.545Z</time>
      </trkpt>
      <trkpt lat="41.36282" lon="19.71543">
        <ele>96.013026</ele>
        <time>2022-05-06T11:15:26.556Z</time>
      </trkpt>
      <trkpt lat="41.36207" lon="19.7183">
        <ele>93.424266</ele>
        <time>2022-05-06T11:16:17.552Z</time>
      </trkpt>
      <trkpt lat="41.36129" lon="19.72141">
        <ele>96.332134</ele>
        <time>2022-05-06T11:17:15.556Z</time>
      </trkpt>
      <trkpt lat="41.36061" lon="19.72408">
        <ele>101.432104</ele>
        <time>2022-05-06T11:18:39.559Z</time>
      </trkpt>
      <trkpt lat="41.3597" lon="19.72672">
        <ele>102.187816</ele>
        <time>2022-05-06T11:19:29.562Z</time>
      </trkpt>
      <trkpt lat="41.3588" lon="19.72953">
        <ele>103.637655</ele>
        <time>2022-05-06T11:20:21.551Z</time>
      </trkpt>
      <trkpt lat="41.35792" lon="19.73208">
        <ele>102.778662</ele>
        <time>2022-05-06T11:21:06.575Z</time>
      </trkpt>
      <trkpt lat="41.35699" lon="19.73481">
        <ele>106.760288</ele>
        <time>2022-05-06T11:21:48.571Z</time>
      </trkpt>
      <trkpt lat="41.35616" lon="19.73722">
        <ele>107.380172</ele>
        <time>2022-05-06T11:22:29.529Z</time>
      </trkpt>
      <trkpt lat="41.35526" lon="19.73981">
        <ele>102.606941</ele>
        <time>2022-05-06T11:23:16.548Z</time>
      </trkpt>
      <trkpt lat="41.3544" lon="19.74226">
        <ele>102.584232</ele>
        <time>2022-05-06T11:23:59.560Z</time>
      </trkpt>
      <trkpt lat="41.35261" lon="19.74361">
        <ele>105.032227</ele>
        <time>2022-05-06T11:24:46.554Z</time>
      </trkpt>
      <trkpt lat="41.35073" lon="19.74551">
        <ele>106.755551</ele>
        <time>2022-05-06T11:25:49.540Z</time>
      </trkpt>
      <trkpt lat="41.34939" lon="19.74802">
        <ele>107.923169</ele>
        <time>2022-05-06T11:26:43.566Z</time>
      </trkpt>
      <trkpt lat="41.34795" lon="19.75042">
        <ele>107.71166</ele>
        <time>2022-05-06T11:27:42.560Z</time>
      </trkpt>
      <trkpt lat="41.34666" lon="19.75275">
        <ele>111.222294</ele>
        <time>2022-05-06T11:28:42.553Z</time>
      </trkpt>
      <trkpt lat="41.34512" lon="19.75499">
        <ele>109.756518</ele>
        <time>2022-05-06T11:29:38.563Z</time>
      </trkpt>
      <trkpt lat="41.34344" lon="19.75725">
        <ele>112.724132</ele>
        <time>2022-05-06T11:30:39.552Z</time>
      </trkpt>
      <trkpt lat="41.34181" lon="19.75944">
        <ele>113.298371</ele>
        <time>2022-05-06T11:31:39.614Z</time>
      </trkpt>
      <trkpt lat="41.34019" lon="19.76159">
        <ele>118.268449</ele>
        <time>2022-05-06T11:32:40.560Z</time>
      </trkpt>
      <trkpt lat="41.33889" lon="19.76357">
        <ele>116.779349</ele>
        <time>2022-05-06T11:33:38.579Z</time>
      </trkpt>
      <trkpt lat="41.34073" lon="19.76558">
        <ele>116.078844</ele>
        <time>2022-05-06T11:34:27.575Z</time>
      </trkpt>
      <trkpt lat="41.33939" lon="19.76794">
        <ele>116.038888</ele>
        <time>2022-05-06T11:35:33.547Z</time>
      </trkpt>
      <trkpt lat="41.33786" lon="19.77014">
        <ele>116.353716</ele>
        <time>2022-05-06T11:36:33.537Z</time>
      </trkpt>
      <trkpt lat="41.33617" lon="19.77265">
        <ele>120.726122</ele>
        <time>2022-05-06T11:37:52.544Z</time>
      </trkpt>
      <trkpt lat="41.33459" lon="19.77487">
        <ele>131.482066</ele>
        <time>2022-05-06T11:39:58.550Z</time>
      </trkpt>
      <trkpt lat="41.33312" lon="19.77707">
        <ele>133.636614</ele>
        <time>2022-05-06T11:40:52.547Z</time>
      </trkpt>
      <trkpt lat="41.33162" lon="19.77936">
        <ele>145.846065</ele>
        <time>2022-05-06T11:41:50.544Z</time>
      </trkpt>
      <trkpt lat="41.33017" lon="19.78148">
        <ele>150.659278</ele>
        <time>2022-05-06T11:42:50.561Z</time>
      </trkpt>
      <trkpt lat="41.32873" lon="19.78347">
        <ele>149.927001</ele>
        <time>2022-05-06T11:43:49.551Z</time>
      </trkpt>
      <trkpt lat="41.3277" lon="19.78506">
        <ele>143.898666</ele>
        <time>2022-05-06T11:45:41.545Z</time>
      </trkpt>
      <trkpt lat="41.32594" lon="19.78679">
        <ele>135.778865</ele>
        <time>2022-05-06T11:47:18.590Z</time>
      </trkpt>
      <trkpt lat="41.32391" lon="19.78791">
        <ele>141.033796</ele>
        <time>2022-05-06T11:48:36.553Z</time>
      </trkpt>
      <trkpt lat="41.32198" lon="19.78896">
        <ele>145.134805</ele>
        <time>2022-05-06T11:49:44.557Z</time>
      </trkpt>
      <trkpt lat="41.32207" lon="19.79125">
        <ele>139.395928</ele>
        <time>2022-05-06T11:50:41.586Z</time>
      </trkpt>
      <trkpt lat="41.32296" lon="19.79396">
        <ele>149.287044</ele>
        <time>2022-05-06T11:51:28.544Z</time>
      </trkpt>
      <trkpt lat="41.32354" lon="19.79667">
        <ele>156.859132</ele>
        <time>2022-05-06T11:52:20.531Z</time>
      </trkpt>
      <trkpt lat="41.32433" lon="19.79945">
        <ele>153.893568</ele>
        <time>2022-05-06T11:53:11.557Z</time>
      </trkpt>
      <trkpt lat="41.32527" lon="19.80212">
        <ele>150.481989</ele>
        <time>2022-05-06T11:54:06.532Z</time>
      </trkpt>
      <trkpt lat="41.32606" lon="19.80475">
        <ele>153.730801</ele>
        <time>2022-05-06T11:55:50.551Z</time>
      </trkpt>
      <trkpt lat="41.3262" lon="19.80594">
        <ele>153.730801</ele>
        <time>2022-05-06T11:57:38.908Z</time>
      </trkpt>
    </trkseg>
  </trk>
</gpx>